createdAt,value
2018-05-14T00:00:11.937Z,15.93
2018-05-14T00:01:11.928Z,15.92
2018-05-14T00:02:11.911Z,15.86
2018-05-14T00:03:11.904Z,15.90
2018-05-14T00:04:11.883Z,15.86
2018-05-14T00:05:11.870Z,15.83
2018-05-14T00:06:11.857Z,15.82
2018-05-14T00:07:11.849Z,15.75
2018-05-14T00:08:11.831Z,15.90
2018-05-14T00:09:11.817Z,15.74
2018-05-14T00:10:12.269Z,15.80
2018-05-14T00:11:11.791Z,15.71
2018-05-14T00:12:11.778Z,15.76
2018-05-14T00:13:11.765Z,15.74
2018-05-14T00:14:11.757Z,15.75
2018-05-14T00:15:11.736Z,15.72
2018-05-14T00:16:11.723Z,15.69
2018-05-14T00:17:11.711Z,15.75
2018-05-14T00:18:11.694Z,15.71
2018-05-14T00:19:11.682Z,15.72
2018-05-14T00:20:11.670Z,15.68
2018-05-14T00:21:11.657Z,15.69
2018-05-14T00:22:11.641Z,15.65
2018-05-14T00:23:11.630Z,15.67
2018-05-14T00:24:11.618Z,15.57
2018-05-14T00:25:11.605Z,15.68
2018-05-14T00:26:11.591Z,15.56
2018-05-14T00:27:11.575Z,15.60
2018-05-14T00:28:11.559Z,15.62
2018-05-14T00:29:11.550Z,15.54
2018-05-14T00:30:11.532Z,15.59
2018-05-14T00:31:11.528Z,15.54
2018-05-14T00:32:11.507Z,15.51
2018-05-14T00:33:11.494Z,15.59
2018-05-14T00:34:11.477Z,15.64
2018-05-14T00:35:11.465Z,15.51
2018-05-14T00:36:11.452Z,15.50
2018-05-14T00:37:11.439Z,15.50
2018-05-14T00:38:11.426Z,15.54
2018-05-14T00:39:11.410Z,15.51
2018-05-14T00:40:11.400Z,15.57
2018-05-14T00:41:11.388Z,15.57
2018-05-14T00:42:11.370Z,15.51
2018-05-14T00:43:11.357Z,15.54
2018-05-14T00:44:11.343Z,15.54
2018-05-14T00:45:11.332Z,15.54
2018-05-14T00:46:11.316Z,15.51
2018-05-14T00:47:11.302Z,15.51
2018-05-14T00:48:11.291Z,15.39
2018-05-14T00:49:11.276Z,15.53
2018-05-14T00:50:11.265Z,15.49
2018-05-14T00:51:11.247Z,15.49
2018-05-14T00:52:11.235Z,15.38
2018-05-14T00:53:11.223Z,15.49
2018-05-14T00:54:11.208Z,15.44
2018-05-14T00:55:11.195Z,15.36
2018-05-14T00:56:11.180Z,15.35
2018-05-14T00:57:11.166Z,15.39
2018-05-14T00:58:11.155Z,15.36
2018-05-14T00:59:11.139Z,15.43
2018-05-14T01:00:11.123Z,15.49
2018-05-14T01:01:11.117Z,15.34
2018-05-14T01:02:11.100Z,15.41
2018-05-14T01:03:11.088Z,15.41
2018-05-14T01:04:11.070Z,15.43
2018-05-14T01:05:11.054Z,15.44
2018-05-14T01:06:11.041Z,15.47
2018-05-14T01:07:11.029Z,15.36
2018-05-14T01:08:11.018Z,15.39
2018-05-14T01:09:11.001Z,15.39
2018-05-14T01:10:10.989Z,15.44
2018-05-14T01:11:10.976Z,15.36
2018-05-14T01:12:10.964Z,15.46
2018-05-14T01:13:10.944Z,15.41
2018-05-14T01:14:10.935Z,15.41
2018-05-14T01:15:10.917Z,15.39
2018-05-14T01:16:10.903Z,15.38
2018-05-14T01:17:10.890Z,15.34
2018-05-14T01:18:10.880Z,15.36
2018-05-14T01:19:10.864Z,15.39
2018-05-14T01:20:10.852Z,15.36
2018-05-14T01:21:10.836Z,15.41
2018-05-14T01:22:10.821Z,15.43
2018-05-14T01:23:10.812Z,15.44
2018-05-14T01:24:10.796Z,15.39
2018-05-14T01:25:10.782Z,15.34
2018-05-14T01:26:10.765Z,15.34
2018-05-14T01:27:10.754Z,15.38
2018-05-14T01:28:10.741Z,15.32
2018-05-14T01:29:10.724Z,15.31
2018-05-14T01:30:10.715Z,15.29
2018-05-14T01:31:10.696Z,15.32
2018-05-14T01:32:10.684Z,15.25
2018-05-14T01:33:10.670Z,15.28
2018-05-14T01:34:10.655Z,15.31
2018-05-14T01:35:10.641Z,15.34
2018-05-14T01:36:10.637Z,15.34
2018-05-14T01:37:10.617Z,15.25
2018-05-14T01:38:10.601Z,15.38
2018-05-14T01:39:10.587Z,15.41
2018-05-14T01:40:10.572Z,15.44
2018-05-14T01:41:10.560Z,15.32
2018-05-14T01:42:10.550Z,15.36
2018-05-14T01:43:10.531Z,15.36
2018-05-14T01:44:10.517Z,15.35
2018-05-14T01:45:10.503Z,15.38
2018-05-14T01:46:10.489Z,15.32
2018-05-14T01:47:10.480Z,15.34
2018-05-14T01:48:10.462Z,15.29
2018-05-14T01:49:10.452Z,15.31
2018-05-14T01:50:10.435Z,15.29
2018-05-14T01:51:10.421Z,15.23
2018-05-14T01:52:10.457Z,15.36
2018-05-14T01:53:10.395Z,15.34
2018-05-14T01:54:10.379Z,15.29
2018-05-14T01:55:10.364Z,15.28
2018-05-14T01:56:10.349Z,15.27
2018-05-14T01:57:10.336Z,15.23
2018-05-14T01:58:10.323Z,15.29
2018-05-14T01:59:10.311Z,15.34
2018-05-14T02:00:10.294Z,15.32
2018-05-14T02:01:10.281Z,15.28
2018-05-14T02:02:10.280Z,15.29
2018-05-14T02:03:10.252Z,15.34
2018-05-14T02:04:10.239Z,15.25
2018-05-14T02:05:10.225Z,15.28
2018-05-14T02:06:10.210Z,15.19
2018-05-14T02:07:10.196Z,15.25
2018-05-14T02:08:10.183Z,15.23
2018-05-14T02:09:10.169Z,15.25
2018-05-14T02:10:10.153Z,15.23
2018-05-14T02:11:10.139Z,15.25
2018-05-14T02:12:10.127Z,15.21
2018-05-14T02:13:10.112Z,15.23
2018-05-14T02:14:10.099Z,15.13
2018-05-14T02:15:10.085Z,15.13
2018-05-14T02:16:10.070Z,15.19
2018-05-14T02:17:10.058Z,15.16
2018-05-14T02:18:10.043Z,15.16
2018-05-14T02:19:10.031Z,15.17
2018-05-14T02:20:10.017Z,15.14
2018-05-14T02:21:10.005Z,15.10
2018-05-14T02:22:09.991Z,15.20
2018-05-14T02:23:09.972Z,15.09
2018-05-14T02:24:09.966Z,15.09
2018-05-14T02:25:09.946Z,15.07
2018-05-14T02:26:09.929Z,15.03
2018-05-14T02:27:09.918Z,15.07
2018-05-14T02:28:09.904Z,15.06
2018-05-14T02:29:09.889Z,15.06
2018-05-14T02:30:09.874Z,14.98
2018-05-14T02:31:09.861Z,15.02
2018-05-14T02:32:09.846Z,14.92
2018-05-14T02:33:09.837Z,15.02
2018-05-14T02:34:09.819Z,15.07
2018-05-14T02:35:09.803Z,14.98
2018-05-14T02:36:09.790Z,15.01
2018-05-14T02:37:09.776Z,14.95
2018-05-14T02:38:09.765Z,14.92
2018-05-14T02:39:09.747Z,14.94
2018-05-14T02:40:09.734Z,14.96
2018-05-14T02:41:09.721Z,14.89
2018-05-14T02:42:09.704Z,14.95
2018-05-14T02:43:09.691Z,14.92
2018-05-14T02:44:09.678Z,14.84
2018-05-14T02:45:09.666Z,14.80
2018-05-14T02:46:09.646Z,14.91
2018-05-14T02:47:09.634Z,14.81
2018-05-14T02:48:09.631Z,14.83
2018-05-14T02:49:09.606Z,14.78
2018-05-14T02:50:09.592Z,14.75
2018-05-14T02:51:09.577Z,14.75
2018-05-14T02:52:09.565Z,14.77
2018-05-14T02:53:09.551Z,14.75
2018-05-14T02:54:09.533Z,14.72
2018-05-14T02:55:09.522Z,14.75
2018-05-14T02:56:09.506Z,14.75
2018-05-14T02:57:09.494Z,14.69
2018-05-14T02:58:09.478Z,14.68
2018-05-14T02:59:09.466Z,14.75
2018-05-14T03:00:09.450Z,14.73
2018-05-14T03:01:09.439Z,14.65
2018-05-14T03:02:09.432Z,14.70
2018-05-14T03:03:09.407Z,14.73
2018-05-14T03:04:09.487Z,14.69
2018-05-14T03:05:09.380Z,14.72
2018-05-14T03:06:09.366Z,14.58
2018-05-14T03:07:09.351Z,14.68
2018-05-14T03:08:09.336Z,14.73
2018-05-14T03:09:09.323Z,14.70
2018-05-14T03:10:09.311Z,14.69
2018-05-14T03:11:09.293Z,14.70
2018-05-14T03:12:09.281Z,14.65
2018-05-14T03:13:09.266Z,14.64
2018-05-14T03:14:09.251Z,14.58
2018-05-14T03:15:09.236Z,14.60
2018-05-14T03:16:09.223Z,14.61
2018-05-14T03:17:09.210Z,14.58
2018-05-14T03:18:09.194Z,14.61
2018-05-14T03:19:09.178Z,14.52
2018-05-14T03:20:09.164Z,14.47
2018-05-14T03:21:09.149Z,14.45
2018-05-14T03:22:09.138Z,14.45
2018-05-14T03:23:09.120Z,14.43
2018-05-14T03:24:09.109Z,14.51
2018-05-14T03:25:09.092Z,14.46
2018-05-14T03:26:09.077Z,14.54
2018-05-14T03:27:09.062Z,14.47
2018-05-14T03:28:09.047Z,14.47
2018-05-14T03:29:09.036Z,14.42
2018-05-14T03:30:09.019Z,14.45
2018-05-14T03:31:09.007Z,14.40
2018-05-14T03:32:08.992Z,14.45
2018-05-14T03:33:08.977Z,14.37
2018-05-14T03:34:08.963Z,14.40
2018-05-14T03:35:08.947Z,14.36
2018-05-14T03:36:08.933Z,14.32
2018-05-14T03:37:08.920Z,14.32
2018-05-14T03:38:08.906Z,14.36
2018-05-14T03:39:08.889Z,14.25
2018-05-14T03:40:08.877Z,14.36
2018-05-14T03:41:08.860Z,14.29
2018-05-14T03:42:08.846Z,14.35
2018-05-14T03:43:08.833Z,14.33
2018-05-14T03:44:08.818Z,14.42
2018-05-14T03:45:08.807Z,14.35
2018-05-14T03:46:08.788Z,14.36
2018-05-14T03:47:08.780Z,14.36
2018-05-14T03:48:08.760Z,14.36
2018-05-14T03:49:08.746Z,14.33
2018-05-14T03:50:08.736Z,14.33
2018-05-14T03:51:08.716Z,14.40
2018-05-14T03:52:08.706Z,14.32
2018-05-14T03:53:08.686Z,14.40
2018-05-14T03:54:08.676Z,14.36
2018-05-14T03:55:08.657Z,14.40
2018-05-14T03:56:08.642Z,14.45
2018-05-14T03:57:08.631Z,14.43
2018-05-14T03:58:08.614Z,14.43
2018-05-14T03:59:08.615Z,14.45
2018-05-14T04:00:08.583Z,14.43
2018-05-14T04:01:08.571Z,14.47
2018-05-14T04:02:08.557Z,14.51
2018-05-14T04:03:08.543Z,14.47
2018-05-14T04:04:08.531Z,14.45
2018-05-14T04:05:08.518Z,14.46
2018-05-14T04:06:08.497Z,14.52
2018-05-14T04:07:08.481Z,14.51
2018-05-14T04:08:08.469Z,14.55
2018-05-14T04:09:08.454Z,14.62
2018-05-14T04:10:08.439Z,14.62
2018-05-14T04:11:08.425Z,14.65
2018-05-14T04:12:08.416Z,14.61
2018-05-14T04:13:08.397Z,14.57
2018-05-14T04:14:08.381Z,14.64
2018-05-14T04:15:08.366Z,14.64
2018-05-14T04:16:08.352Z,14.72
2018-05-14T04:17:08.338Z,14.72
2018-05-14T04:18:08.328Z,14.65
2018-05-14T04:19:08.309Z,14.69
2018-05-14T04:20:08.302Z,14.73
2018-05-14T04:21:08.280Z,14.61
2018-05-14T04:22:08.266Z,14.70
2018-05-14T04:23:08.252Z,14.68
2018-05-14T04:24:08.239Z,14.72
2018-05-14T04:25:08.223Z,14.73
2018-05-14T04:26:08.210Z,14.75
2018-05-14T04:27:08.280Z,14.83
2018-05-14T04:28:08.180Z,14.80
2018-05-14T04:29:08.166Z,14.83
2018-05-14T04:30:08.162Z,14.88
2018-05-14T04:31:08.138Z,14.89
2018-05-14T04:32:08.123Z,14.89
2018-05-14T04:33:08.111Z,14.92
2018-05-14T04:34:08.093Z,14.95
2018-05-14T04:35:08.077Z,14.92
2018-05-14T04:36:08.065Z,14.99
2018-05-14T04:37:08.051Z,14.98
2018-05-14T04:38:08.035Z,15.01
2018-05-14T04:39:08.020Z,14.98
2018-05-14T04:40:08.006Z,15.06
2018-05-14T04:41:07.991Z,15.07
2018-05-14T04:42:07.980Z,15.10
2018-05-14T04:43:07.966Z,15.10
2018-05-14T04:44:07.948Z,15.06
2018-05-14T04:45:07.936Z,15.19
2018-05-14T04:46:07.923Z,15.20
2018-05-14T04:47:07.905Z,15.20
2018-05-14T04:48:07.891Z,15.25
2018-05-14T04:49:07.876Z,15.25
2018-05-14T04:50:07.862Z,15.29
2018-05-14T04:51:07.856Z,15.27
2018-05-14T04:52:07.837Z,15.28
2018-05-14T04:53:07.819Z,15.39
2018-05-14T04:54:07.807Z,15.35
2018-05-14T04:55:07.792Z,15.44
2018-05-14T04:56:07.779Z,15.43
2018-05-14T04:57:07.765Z,15.56
2018-05-14T04:58:07.747Z,15.56
2018-05-14T04:59:07.744Z,15.57
2018-05-14T05:00:07.720Z,15.57
2018-05-14T05:01:07.709Z,15.57
2018-05-14T05:02:07.696Z,15.67
2018-05-14T05:03:07.681Z,15.68
2018-05-14T05:04:07.664Z,15.76
2018-05-14T05:05:07.650Z,15.71
2018-05-14T05:06:07.635Z,15.75
2018-05-14T05:07:07.621Z,15.74
2018-05-14T05:08:07.605Z,15.86
2018-05-14T05:09:07.643Z,15.96
2018-05-14T05:10:07.577Z,15.92
2018-05-14T05:11:07.564Z,15.97
2018-05-14T05:12:07.550Z,16.01
2018-05-14T05:13:07.537Z,15.96
2018-05-14T05:14:07.521Z,16.12
2018-05-14T05:15:07.507Z,16.07
2018-05-14T05:16:07.494Z,16.07
2018-05-14T05:17:07.553Z,16.12
2018-05-14T05:18:07.466Z,16.09
2018-05-14T05:19:07.451Z,16.14
2018-05-14T05:20:07.440Z,16.14
2018-05-14T05:21:07.424Z,16.25
2018-05-14T05:22:07.408Z,16.21
2018-05-14T05:23:07.395Z,16.34
2018-05-14T05:24:07.382Z,16.42
2018-05-14T05:25:07.369Z,16.43
2018-05-14T05:26:07.353Z,16.45
2018-05-14T05:27:07.341Z,16.43
2018-05-14T05:28:07.328Z,16.50
2018-05-14T05:29:07.312Z,16.49
2018-05-14T05:30:07.297Z,16.50
2018-05-14T05:31:07.284Z,16.57
2018-05-14T05:32:07.269Z,16.58
2018-05-14T05:33:07.257Z,16.61
2018-05-14T05:34:07.241Z,16.63
2018-05-14T05:35:07.228Z,16.76
2018-05-14T05:36:07.215Z,16.75
2018-05-14T05:37:07.200Z,16.89
2018-05-14T05:38:07.188Z,16.86
2018-05-14T05:39:07.175Z,16.86
2018-05-14T05:40:07.160Z,16.89
2018-05-14T05:41:07.148Z,17.00
2018-05-14T05:42:07.132Z,16.98
2018-05-14T05:43:07.122Z,17.00
2018-05-14T05:44:07.113Z,17.11
2018-05-14T05:45:07.095Z,17.11
2018-05-14T05:46:07.081Z,17.14
2018-05-14T05:47:07.135Z,17.18
2018-05-14T05:48:07.052Z,17.22
2018-05-14T05:49:07.038Z,17.30
2018-05-14T05:50:07.025Z,17.26
2018-05-14T05:51:07.009Z,17.33
2018-05-14T05:52:06.996Z,17.51
2018-05-14T05:53:06.982Z,17.38
2018-05-14T05:54:06.968Z,17.54
2018-05-14T05:55:06.956Z,17.56
2018-05-14T05:56:06.943Z,17.54
2018-05-14T05:57:06.933Z,17.55
2018-05-14T05:58:06.913Z,17.63
2018-05-14T05:59:06.912Z,17.58
2018-05-14T06:00:06.895Z,17.75
2018-05-14T06:01:06.874Z,17.71
2018-05-14T06:02:06.860Z,17.82
2018-05-14T06:03:06.853Z,17.87
2018-05-14T06:04:06.844Z,17.89
2018-05-14T06:05:06.822Z,17.96
2018-05-14T06:06:06.822Z,18.00
2018-05-14T06:07:06.792Z,18.05
2018-05-14T06:08:06.793Z,18.17
2018-05-14T06:09:06.768Z,18.14
2018-05-14T06:10:06.752Z,18.18
2018-05-14T06:11:06.743Z,18.20
2018-05-14T06:12:06.729Z,18.25
2018-05-14T06:13:06.715Z,18.32
2018-05-14T06:14:06.703Z,18.30
2018-05-14T06:15:06.687Z,18.26
2018-05-14T06:16:06.674Z,18.35
2018-05-14T06:17:06.664Z,18.35
2018-05-14T06:18:06.650Z,18.35
2018-05-14T06:19:06.636Z,18.45
2018-05-14T06:20:06.624Z,18.69
2018-05-14T06:21:06.610Z,18.55
2018-05-14T06:22:06.602Z,18.73
2018-05-14T06:23:06.585Z,18.70
2018-05-14T06:24:06.581Z,18.76
2018-05-14T06:25:06.560Z,18.90
2018-05-14T06:26:06.547Z,18.92
2018-05-14T06:27:06.535Z,18.92
2018-05-14T06:28:06.521Z,18.95
2018-05-14T06:29:06.509Z,18.95
2018-05-14T06:30:06.503Z,18.99
2018-05-14T06:31:06.483Z,19.21
2018-05-14T06:32:06.470Z,19.28
2018-05-14T06:33:06.518Z,19.21
2018-05-14T06:34:06.445Z,19.39
2018-05-14T06:35:06.432Z,19.41
2018-05-14T06:36:06.421Z,19.46
2018-05-14T06:37:06.408Z,19.50
2018-05-14T06:38:06.394Z,19.51
2018-05-14T06:39:06.382Z,19.69
2018-05-14T06:40:06.371Z,19.71
2018-05-14T06:41:06.366Z,19.83
2018-05-14T06:42:06.347Z,19.91
2018-05-14T06:43:06.345Z,19.98
2018-05-14T06:44:06.323Z,20.01
2018-05-14T06:45:06.311Z,20.05
2018-05-14T06:46:06.297Z,20.10
2018-05-14T06:47:06.290Z,20.10
2018-05-14T06:48:06.277Z,20.20
2018-05-14T06:49:06.263Z,20.23
2018-05-14T06:50:06.248Z,20.32
2018-05-14T06:51:06.238Z,20.47
2018-05-14T06:52:06.228Z,20.48
2018-05-14T06:53:06.214Z,20.48
2018-05-14T06:54:06.202Z,20.57
2018-05-14T06:55:06.204Z,20.67
2018-05-14T06:56:06.182Z,20.72
2018-05-14T06:57:06.169Z,20.77
2018-05-14T06:58:06.157Z,20.84
2018-05-14T06:59:06.145Z,20.89
2018-05-14T07:00:06.137Z,21.01
2018-05-14T07:01:06.140Z,20.99
2018-05-14T07:02:06.113Z,20.99
2018-05-14T07:03:06.178Z,21.03
2018-05-14T07:04:06.088Z,21.10
2018-05-14T07:05:06.079Z,21.16
2018-05-14T07:06:06.066Z,21.10
2018-05-14T07:07:06.056Z,21.25
2018-05-14T07:08:06.043Z,21.28
2018-05-14T07:09:06.039Z,21.38
2018-05-14T07:10:06.067Z,21.40
2018-05-14T07:11:06.010Z,21.49
2018-05-14T07:12:06.008Z,21.49
2018-05-14T07:13:05.989Z,21.56
2018-05-14T07:14:05.977Z,21.62
2018-05-14T07:15:05.968Z,21.64
2018-05-14T07:16:05.957Z,21.80
2018-05-14T07:17:05.946Z,21.88
2018-05-14T07:18:05.939Z,21.98
2018-05-14T07:19:05.934Z,21.99
2018-05-14T07:20:05.914Z,22.09
2018-05-14T07:21:05.906Z,22.20
2018-05-14T07:22:05.895Z,22.21
2018-05-14T07:23:05.883Z,22.24
2018-05-14T07:24:05.884Z,22.28
2018-05-14T07:25:05.863Z,22.43
2018-05-14T07:26:05.858Z,22.61
2018-05-14T07:27:05.842Z,22.67
2018-05-14T07:28:05.833Z,22.80
2018-05-14T07:29:05.829Z,22.86
2018-05-14T07:30:05.824Z,23.02
2018-05-14T07:31:05.803Z,23.32
2018-05-14T07:32:05.793Z,23.33
2018-05-14T07:33:05.786Z,23.83
2018-05-14T07:34:05.773Z,24.06
2018-05-14T07:35:05.765Z,24.30
2018-05-14T07:36:05.755Z,24.64
2018-05-14T07:37:05.754Z,24.93
2018-05-14T07:38:05.734Z,25.13
2018-05-14T07:39:05.736Z,25.47
2018-05-14T07:40:05.717Z,25.77
2018-05-14T07:41:05.709Z,25.95
2018-05-14T07:42:05.706Z,26.15
2018-05-14T07:43:05.688Z,26.37
2018-05-14T07:44:05.681Z,26.57
2018-05-14T07:45:05.673Z,26.91
2018-05-14T07:46:05.691Z,27.02
2018-05-14T07:47:05.659Z,27.22
2018-05-14T07:48:05.646Z,27.40
2018-05-14T07:49:05.642Z,27.74
2018-05-14T07:50:05.634Z,27.78
2018-05-14T07:51:05.626Z,27.79
2018-05-14T07:52:05.618Z,27.94
2018-05-14T07:53:05.618Z,28.19
2018-05-14T07:54:05.606Z,28.48
2018-05-14T07:55:05.603Z,28.86
2018-05-14T07:56:05.596Z,28.93
2018-05-14T07:57:05.591Z,29.26
2018-05-14T07:58:05.591Z,29.41
2018-05-14T07:59:05.581Z,29.23
2018-05-14T08:00:05.584Z,29.19
2018-05-14T08:01:05.576Z,29.11
2018-05-14T08:02:05.571Z,29.24
2018-05-14T08:03:05.572Z,29.34
2018-05-14T08:04:05.565Z,29.30
2018-05-14T08:05:05.562Z,29.43
2018-05-14T08:06:05.561Z,29.65
2018-05-14T08:07:05.558Z,29.71
2018-05-14T08:08:05.555Z,29.98
2018-05-14T08:09:05.554Z,30.11
2018-05-14T08:10:05.557Z,30.13
2018-05-14T08:11:05.552Z,30.31
2018-05-14T08:12:05.547Z,30.15
2018-05-14T08:13:05.545Z,30.01
2018-05-14T08:14:05.544Z,30.11
2018-05-14T08:15:05.552Z,29.86
2018-05-14T08:16:05.546Z,29.60
2018-05-14T08:17:05.541Z,29.52
2018-05-14T08:18:05.541Z,29.67
2018-05-14T08:19:05.540Z,30.08
2018-05-14T08:20:05.550Z,29.90
2018-05-14T08:21:05.546Z,29.70
2018-05-14T08:22:05.537Z,29.78
2018-05-14T08:23:05.535Z,29.57
2018-05-14T08:24:05.538Z,29.89
2018-05-14T08:25:05.536Z,30.02
2018-05-14T08:26:05.533Z,30.13
2018-05-14T08:27:05.534Z,30.16
2018-05-14T08:28:05.535Z,30.37
2018-05-14T08:29:05.538Z,30.54
2018-05-14T08:30:05.533Z,30.72
2018-05-14T08:31:05.542Z,30.79
2018-05-14T08:32:05.534Z,30.79
2018-05-14T08:33:05.533Z,30.49
2018-05-14T08:34:05.532Z,30.57
2018-05-14T08:35:05.531Z,30.47
2018-05-14T08:36:05.544Z,30.60
2018-05-14T08:37:05.589Z,30.54
2018-05-14T08:38:05.531Z,30.35
2018-05-14T08:39:05.535Z,30.34
2018-05-14T08:40:05.533Z,30.53
2018-05-14T08:41:05.533Z,30.61
2018-05-14T08:42:05.534Z,30.62
2018-05-14T08:43:05.530Z,30.65
2018-05-14T08:44:05.535Z,30.69
2018-05-14T08:45:05.533Z,30.69
2018-05-14T08:46:05.533Z,30.80
2018-05-14T08:47:05.531Z,30.79
2018-05-14T08:48:05.656Z,30.82
2018-05-14T08:49:05.530Z,30.92
2018-05-14T08:50:05.531Z,30.89
2018-05-14T08:51:05.529Z,30.82
2018-05-14T08:52:05.538Z,31.06
2018-05-14T08:53:05.529Z,31.16
2018-05-14T08:54:05.605Z,31.06
2018-05-14T08:55:05.538Z,30.60
2018-05-14T08:56:05.528Z,30.42
2018-05-14T08:57:05.527Z,30.27
2018-05-14T08:58:05.529Z,30.37
2018-05-14T08:59:05.526Z,30.38
2018-05-14T09:00:05.530Z,30.32
2018-05-14T09:01:05.524Z,30.51
2018-05-14T09:02:05.521Z,30.38
2018-05-14T09:03:05.523Z,30.37
2018-05-14T09:04:05.522Z,30.35
2018-05-14T09:05:05.526Z,30.43
2018-05-14T09:06:05.519Z,30.55
2018-05-14T09:07:05.517Z,30.58
2018-05-14T09:08:05.518Z,30.54
2018-05-14T09:09:05.515Z,30.57
2018-05-14T09:10:05.517Z,30.73
2018-05-14T09:11:05.513Z,30.77
2018-05-14T09:12:05.512Z,30.80
2018-05-14T09:13:05.511Z,30.94
2018-05-14T09:14:05.510Z,30.89
2018-05-14T09:15:05.511Z,31.04
2018-05-14T09:16:05.514Z,31.26
2018-05-14T09:17:05.509Z,31.35
2018-05-14T09:18:05.505Z,31.61
2018-05-14T09:19:05.507Z,31.63
2018-05-14T09:20:05.507Z,31.78
2018-05-14T09:21:05.502Z,31.96
2018-05-14T09:22:05.507Z,31.96
2018-05-14T09:23:05.499Z,31.93
2018-05-14T09:24:05.496Z,31.88
2018-05-14T09:25:05.495Z,31.57
2018-05-14T09:26:05.500Z,31.85
2018-05-14T09:27:05.498Z,32.00
2018-05-14T09:28:05.492Z,31.99
2018-05-14T09:29:05.490Z,32.06
2018-05-14T09:30:05.489Z,32.14
2018-05-14T09:31:05.486Z,32.32
2018-05-14T09:32:05.489Z,32.56
2018-05-14T09:33:05.485Z,32.56
2018-05-14T09:34:05.483Z,32.56
2018-05-14T09:35:05.483Z,32.55
2018-05-14T09:36:05.480Z,32.56
2018-05-14T09:37:05.482Z,32.38
2018-05-14T09:38:05.477Z,32.32
2018-05-14T09:39:05.479Z,32.10
2018-05-14T09:40:05.476Z,32.10
2018-05-14T09:41:05.476Z,32.14
2018-05-14T09:42:05.473Z,32.10
2018-05-14T09:43:05.473Z,31.95
2018-05-14T09:44:05.473Z,31.88
2018-05-14T09:45:05.471Z,31.92
2018-05-14T09:46:05.471Z,32.22
2018-05-14T09:47:05.474Z,32.32
2018-05-14T09:48:05.469Z,32.06
2018-05-14T09:49:05.471Z,32.28
2018-05-14T09:50:05.471Z,32.06
2018-05-14T09:51:05.468Z,31.73
2018-05-14T09:52:05.469Z,31.88
2018-05-14T09:53:05.465Z,31.88
2018-05-14T09:54:05.466Z,31.69
2018-05-14T09:55:05.466Z,31.50
2018-05-14T09:56:05.466Z,31.36
2018-05-14T09:57:05.462Z,31.72
2018-05-14T09:58:05.461Z,31.78
2018-05-14T09:59:05.460Z,31.62
2018-05-14T10:00:05.460Z,31.63
2018-05-14T10:01:05.462Z,31.85
2018-05-14T10:02:05.458Z,31.88
2018-05-14T10:03:05.457Z,31.99
2018-05-14T10:04:05.460Z,31.96
2018-05-14T10:05:05.461Z,31.93
2018-05-14T10:06:05.461Z,32.03
2018-05-14T10:07:05.457Z,32.30
2018-05-14T10:08:05.458Z,32.59
2018-05-14T10:09:05.461Z,32.55
2018-05-14T10:10:05.464Z,32.56
2018-05-14T10:11:05.459Z,32.65
2018-05-14T10:12:05.460Z,32.72
2018-05-14T10:13:05.480Z,33.04
2018-05-14T10:14:05.466Z,33.28
2018-05-14T10:15:05.464Z,32.96
2018-05-14T10:16:05.470Z,32.55
2018-05-14T10:17:05.464Z,32.15
2018-05-14T10:18:05.465Z,32.19
2018-05-14T10:19:05.468Z,32.08
2018-05-14T10:20:05.468Z,32.32
2018-05-14T10:21:05.475Z,32.72
2018-05-14T10:22:05.472Z,32.62
2018-05-14T10:23:05.474Z,32.48
2018-05-14T10:24:05.481Z,32.48
2018-05-14T10:25:05.481Z,32.60
2018-05-14T10:26:05.481Z,32.29
2018-05-14T10:27:05.483Z,32.15
2018-05-14T10:28:05.484Z,32.11
2018-05-14T10:29:05.491Z,32.30
2018-05-14T10:30:05.490Z,31.80
2018-05-14T10:31:05.492Z,31.99
2018-05-14T10:32:05.582Z,32.29
2018-05-14T10:33:05.498Z,32.75
2018-05-14T10:34:05.500Z,33.00
2018-05-14T10:35:05.505Z,33.34
2018-05-14T10:36:05.506Z,33.65
2018-05-14T10:37:05.516Z,33.73
2018-05-14T10:38:05.511Z,33.87
2018-05-14T10:39:05.519Z,33.88
2018-05-14T10:40:05.517Z,34.16
2018-05-14T10:41:05.531Z,34.34
2018-05-14T10:42:05.524Z,34.47
2018-05-14T10:43:05.529Z,34.82
2018-05-14T10:44:05.531Z,34.91
2018-05-14T10:45:05.545Z,34.96
2018-05-14T10:46:05.538Z,35.14
2018-05-14T10:47:05.543Z,35.26
2018-05-14T10:48:05.548Z,34.88
2018-05-14T10:49:05.551Z,34.52
2018-05-14T10:50:05.557Z,34.64
2018-05-14T10:51:05.558Z,34.91
2018-05-14T10:52:05.564Z,35.09
2018-05-14T10:53:05.566Z,35.00
2018-05-14T10:54:05.572Z,34.69
2018-05-14T10:55:05.580Z,34.72
2018-05-14T10:56:05.581Z,34.91
2018-05-14T10:57:05.587Z,35.25
2018-05-14T10:58:05.588Z,35.38
2018-05-14T10:59:05.597Z,35.41
2018-05-14T11:00:05.600Z,35.50
2018-05-14T11:01:05.673Z,35.87
2018-05-14T11:02:05.609Z,36.15
2018-05-14T11:03:05.613Z,36.07
2018-05-14T11:04:05.697Z,35.78
2018-05-14T11:05:05.624Z,35.68
2018-05-14T11:06:05.631Z,35.81
2018-05-14T11:07:05.635Z,35.60
2018-05-14T11:08:05.641Z,35.59
2018-05-14T11:09:05.644Z,35.94
2018-05-14T11:10:05.651Z,35.80
2018-05-14T11:11:05.655Z,35.41
2018-05-14T11:12:05.660Z,35.50
2018-05-14T11:13:05.667Z,35.66
2018-05-14T11:14:05.672Z,35.84
2018-05-14T11:15:05.676Z,36.27
2018-05-14T11:16:05.685Z,36.65
2018-05-14T11:17:05.687Z,36.80
2018-05-14T11:18:05.692Z,36.87
2018-05-14T11:19:05.701Z,36.68
2018-05-14T11:20:05.710Z,36.37
2018-05-14T11:21:05.713Z,36.20
2018-05-14T11:22:05.717Z,35.74
2018-05-14T11:23:05.729Z,35.43
2018-05-14T11:24:05.729Z,35.28
2018-05-14T11:25:05.736Z,35.60
2018-05-14T11:26:05.743Z,36.12
2018-05-14T11:27:05.745Z,36.53
2018-05-14T11:28:05.752Z,36.66
2018-05-14T11:29:05.762Z,36.27
2018-05-14T11:30:05.766Z,35.82
2018-05-14T11:31:05.772Z,35.75
2018-05-14T11:32:05.776Z,35.94
2018-05-14T11:33:05.781Z,36.05
2018-05-14T11:34:05.787Z,35.81
2018-05-14T11:35:05.792Z,36.23
2018-05-14T11:36:05.807Z,36.68
2018-05-14T11:37:05.805Z,36.72
2018-05-14T11:38:05.812Z,36.91
2018-05-14T11:39:05.820Z,37.10
2018-05-14T11:40:05.847Z,36.66
2018-05-14T11:41:05.832Z,36.54
2018-05-14T11:42:05.839Z,36.16
2018-05-14T11:43:05.845Z,35.75
2018-05-14T11:44:05.850Z,35.68
2018-05-14T11:45:05.858Z,35.70
2018-05-14T11:46:05.863Z,35.80
2018-05-14T11:47:05.869Z,35.80
2018-05-14T11:48:05.884Z,36.13
2018-05-14T11:49:05.884Z,36.44
2018-05-14T11:50:05.890Z,36.57
2018-05-14T11:51:05.895Z,36.49
2018-05-14T11:52:05.902Z,36.81
2018-05-14T11:53:05.907Z,36.66
2018-05-14T11:54:05.916Z,36.84
2018-05-14T11:55:05.922Z,36.62
2018-05-14T11:56:05.927Z,36.78
2018-05-14T11:57:05.944Z,36.78
2018-05-14T11:58:05.941Z,36.53
2018-05-14T11:59:05.960Z,36.69
2018-05-14T12:00:05.954Z,37.00
2018-05-14T12:01:05.961Z,36.95
2018-05-14T12:02:05.968Z,37.05
2018-05-14T12:03:06.064Z,37.49
2018-05-14T12:04:05.985Z,37.75
2018-05-14T12:05:05.986Z,37.96
2018-05-14T12:06:05.995Z,37.66
2018-05-14T12:07:06.013Z,37.02
2018-05-14T12:08:06.009Z,36.65
2018-05-14T12:09:06.016Z,36.59
2018-05-14T12:10:06.049Z,36.56
2018-05-14T12:11:06.031Z,36.84
2018-05-14T12:12:06.055Z,36.84
2018-05-14T12:13:06.042Z,37.02
2018-05-14T12:14:06.049Z,37.09
2018-05-14T12:15:06.057Z,36.64
2018-05-14T12:16:06.141Z,36.03
2018-05-14T12:17:06.073Z,36.15
2018-05-14T12:18:06.152Z,36.34
2018-05-14T12:19:06.082Z,36.27
2018-05-14T12:20:06.101Z,36.53
2018-05-14T12:21:06.113Z,36.60
2018-05-14T12:22:06.102Z,36.87
2018-05-14T12:23:06.111Z,37.37
2018-05-14T12:24:06.119Z,37.55
2018-05-14T12:25:06.126Z,37.76
2018-05-14T12:26:06.132Z,38.07
2018-05-14T12:27:06.137Z,38.01
2018-05-14T12:28:06.144Z,38.04
2018-05-14T12:29:06.151Z,38.03
2018-05-14T12:30:06.162Z,37.09
2018-05-14T12:31:06.171Z,36.91
2018-05-14T12:32:06.176Z,36.34
2018-05-14T12:33:06.181Z,36.47
2018-05-14T12:34:06.185Z,36.25
2018-05-14T12:35:06.194Z,36.19
2018-05-14T12:36:06.203Z,36.35
2018-05-14T12:37:06.210Z,36.41
2018-05-14T12:38:06.212Z,36.20
2018-05-14T12:39:06.218Z,36.12
2018-05-14T12:40:06.228Z,36.23
2018-05-14T12:41:06.233Z,36.41
2018-05-14T12:42:06.238Z,36.43
2018-05-14T12:43:06.250Z,36.31
2018-05-14T12:44:06.254Z,36.12
2018-05-14T12:45:06.260Z,36.12
2018-05-14T12:46:06.267Z,36.19
2018-05-14T12:47:06.272Z,35.96
2018-05-14T12:48:06.278Z,36.00
2018-05-14T12:49:06.291Z,35.82
2018-05-14T12:50:06.288Z,35.66
2018-05-14T12:51:06.294Z,35.41
2018-05-14T12:52:06.299Z,35.34